createdAt,value
2018-07-06T00:01:11.589Z,22.40
2018-07-06T00:04:02.653Z,22.40
2018-07-06T00:06:51.199Z,22.50
2018-07-06T00:09:42.085Z,22.50
2018-07-06T00:12:30.995Z,22.50
2018-07-06T00:15:22.588Z,22.50
2018-07-06T00:18:12.999Z,22.40
2018-07-06T00:21:04.590Z,22.00
2018-07-06T00:23:56.608Z,21.90
2018-07-06T00:29:43.162Z,21.60
2018-07-06T00:32:37.748Z,21.40
2018-07-06T00:35:28.355Z,21.30
2018-07-06T00:38:20.024Z,21.30
2018-07-06T00:41:11.705Z,21.20
2018-07-06T00:46:54.688Z,21.30
2018-07-06T00:49:48.925Z,21.20
2018-07-06T00:52:39.388Z,21.20
2018-07-06T00:55:30.639Z,21.20
2018-07-06T00:58:22.212Z,21.20
2018-07-06T01:01:13.610Z,21.20
2018-07-06T01:04:04.816Z,21.30
2018-07-06T01:06:55.765Z,21.30
2018-07-06T01:09:47.278Z,21.30
2018-07-06T01:12:38.834Z,21.40
2018-07-06T01:15:29.512Z,21.30
2018-07-06T01:18:22.737Z,21.30
2018-07-06T01:21:15.229Z,21.30
2018-07-06T01:24:04.955Z,21.40
2018-07-06T01:26:55.627Z,21.40
2018-07-06T01:29:46.179Z,21.40
2018-07-06T01:32:26.367Z,21.50
2018-07-06T01:35:06.726Z,21.40
2018-07-06T01:37:59.467Z,21.40
2018-07-06T01:40:51.902Z,21.40
2018-07-06T01:43:42.034Z,21.40
2018-07-06T01:46:33.414Z,21.40
2018-07-06T01:49:23.932Z,21.40
2018-07-06T01:52:16.679Z,21.40
2018-07-06T01:55:05.342Z,21.40
2018-07-06T01:57:56.083Z,21.40
2018-07-06T02:00:44.367Z,21.30
2018-07-06T02:03:35.956Z,21.30
2018-07-06T02:06:25.920Z,21.20
2018-07-06T02:09:18.149Z,21.20
2018-07-06T02:12:09.943Z,21.20
2018-07-06T02:15:01.012Z,21.10
2018-07-06T02:17:51.642Z,21.10
2018-07-06T02:20:44.119Z,20.90
2018-07-06T02:23:34.942Z,20.90
2018-07-06T02:26:26.588Z,20.90
2018-07-06T02:29:16.248Z,20.90
2018-07-06T02:32:08.024Z,20.90
2018-07-06T02:34:57.672Z,20.70
2018-07-06T02:37:50.994Z,20.80
2018-07-06T02:40:44.479Z,20.90
2018-07-06T02:43:36.293Z,20.90
2018-07-06T02:46:16.358Z,20.80
2018-07-06T02:48:56.615Z,20.70
2018-07-06T02:51:36.762Z,20.70
2018-07-06T02:54:17.126Z,20.80
2018-07-06T02:56:57.475Z,20.70
2018-07-06T02:59:37.833Z,20.70
2018-07-06T03:02:18.091Z,20.70
2018-07-06T03:04:58.346Z,20.80
2018-07-06T03:07:38.396Z,20.70
2018-07-06T03:10:19.670Z,20.70
2018-07-06T03:12:59.926Z,20.70
2018-07-06T03:15:40.285Z,20.60
2018-07-06T03:18:20.332Z,20.50
2018-07-06T03:21:00.587Z,20.40
2018-07-06T03:23:40.842Z,20.40
2018-07-06T03:26:21.813Z,20.40
2018-07-06T03:29:02.272Z,20.40
2018-07-06T03:31:42.594Z,20.40
2018-07-06T03:34:23.086Z,20.50
2018-07-06T03:37:03.039Z,20.70
2018-07-06T03:39:42.819Z,20.90
2018-07-06T03:42:22.661Z,20.90
2018-07-06T03:45:02.512Z,20.60
2018-07-06T03:47:42.324Z,20.30
2018-07-06T03:50:22.108Z,20.20
2018-07-06T03:53:02.211Z,20.30
2018-07-06T03:55:42.464Z,20.20
2018-07-06T03:58:22.823Z,20.20
2018-07-06T04:01:03.280Z,20.10
2018-07-06T04:03:43.429Z,20.10
2018-07-06T04:06:23.412Z,20.00
2018-07-06T04:09:04.143Z,19.90
2018-07-06T04:11:44.294Z,19.80
2018-07-06T04:14:25.166Z,19.70
2018-07-06T04:17:05.317Z,19.70
2018-07-06T04:19:45.469Z,19.70
2018-07-06T04:22:25.788Z,19.60
2018-07-06T04:25:06.287Z,19.70
2018-07-06T04:27:46.540Z,19.70
2018-07-06T04:30:26.794Z,19.60
2018-07-06T04:33:06.945Z,19.60
2018-07-06T04:35:47.897Z,19.50
2018-07-06T04:38:27.870Z,19.60
2018-07-06T04:41:08.836Z,19.70
2018-07-06T04:43:48.885Z,19.60
2018-07-06T04:46:29.037Z,19.50
2018-07-06T04:49:09.292Z,19.60
2018-07-06T04:51:49.548Z,19.70
2018-07-06T04:54:29.402Z,19.80
2018-07-06T04:57:09.647Z,19.90
2018-07-06T04:59:49.962Z,19.90
2018-07-06T05:02:29.825Z,20.10
2018-07-06T05:05:09.748Z,20.20
2018-07-06T05:07:49.897Z,20.30
2018-07-06T05:10:30.305Z,20.30
2018-07-06T05:13:10.337Z,20.40
2018-07-06T05:15:50.306Z,20.60
2018-07-06T05:18:30.763Z,20.90
2018-07-06T05:21:10.914Z,21.10
2018-07-06T05:23:51.064Z,21.50
2018-07-06T05:26:31.281Z,21.90
2018-07-06T05:29:11.644Z,22.20
2018-07-06T05:31:51.712Z,22.70
2018-07-06T05:34:31.739Z,23.00
2018-07-06T05:37:11.754Z,23.20
2018-07-06T05:39:52.082Z,23.90
2018-07-06T05:42:32.136Z,24.00
2018-07-06T05:45:12.282Z,24.10
2018-07-06T05:47:52.293Z,23.70
2018-07-06T05:50:32.688Z,24.10
2018-07-06T05:53:12.737Z,25.00
2018-07-06T05:55:52.890Z,25.00
2018-07-06T05:58:33.248Z,25.60
2018-07-06T06:01:13.402Z,26.40
2018-07-06T06:03:53.653Z,27.70
2018-07-06T06:06:33.497Z,27.60
2018-07-06T06:09:01.079Z,28.60
2018-07-06T06:11:30.025Z,30.10
2018-07-06T06:13:58.848Z,30.80
2018-07-06T06:16:27.698Z,31.00
2018-07-06T06:18:56.645Z,31.50
2018-07-06T06:21:25.668Z,31.30
2018-07-06T06:23:54.883Z,30.50
2018-07-06T06:26:30.530Z,30.60
2018-07-06T06:28:59.855Z,32.30
2018-07-06T06:31:29.946Z,34.30
2018-07-06T06:34:00.784Z,35.20
2018-07-06T06:36:30.272Z,35.50
2018-07-06T06:39:00.719Z,36.00
2018-07-06T06:41:29.960Z,36.30
2018-07-06T06:46:28.757Z,37.20
2018-07-06T06:48:57.809Z,37.00
2018-07-06T06:51:27.106Z,36.60
2018-07-06T06:53:56.365Z,36.90
2018-07-06T06:56:25.498Z,36.90
2018-07-06T06:58:54.807Z,36.60
2018-07-06T07:01:23.992Z,36.70
2018-07-06T07:03:53.827Z,36.60
2018-07-06T07:06:22.841Z,37.40
2018-07-06T07:08:52.090Z,36.60
2018-07-06T07:11:21.244Z,35.10
2018-07-06T07:13:50.393Z,35.00
2018-07-06T07:16:19.636Z,35.70
2018-07-06T07:18:48.803Z,36.50
2018-07-06T07:21:17.739Z,37.30
2018-07-06T07:23:46.657Z,37.00
2018-07-06T07:26:15.613Z,36.80
2018-07-06T07:28:44.544Z,37.50
2018-07-06T07:31:13.421Z,37.10
2018-07-06T07:33:42.378Z,36.60
2018-07-06T07:36:11.277Z,36.50
2018-07-06T07:38:40.564Z,35.90
2018-07-06T07:41:09.418Z,34.20
2018-07-06T07:46:06.980Z,36.00
2018-07-06T07:48:36.141Z,36.00
2018-07-06T07:51:16.603Z,36.40
2018-07-06T07:53:56.651Z,37.10
2018-07-06T07:56:25.914Z,37.20
2018-07-06T07:58:55.412Z,36.40
2018-07-06T08:01:25.442Z,35.10
2018-07-06T08:03:54.486Z,34.70
2018-07-06T08:06:23.721Z,34.30
2018-07-06T08:08:52.786Z,33.10
2018-07-06T08:11:21.919Z,32.30
2018-07-06T08:13:51.068Z,31.80
2018-07-06T08:16:20.228Z,32.00
2018-07-06T08:18:49.369Z,33.00
2018-07-06T08:21:18.473Z,34.10
2018-07-06T08:23:48.122Z,34.80
2018-07-06T08:26:17.357Z,35.30
2018-07-06T08:28:46.966Z,35.00
2018-07-06T08:31:16.101Z,34.00
2018-07-06T08:33:56.483Z,33.20
2018-07-06T08:37:45.540Z,32.50
2018-07-06T08:40:14.648Z,31.60
2018-07-06T08:42:45.024Z,31.10
2018-07-06T08:45:14.270Z,30.40
2018-07-06T08:47:43.868Z,30.00
2018-07-06T08:50:13.121Z,29.70
2018-07-06T08:52:43.356Z,29.90
2018-07-06T08:55:12.365Z,31.00
2018-07-06T08:57:42.381Z,33.00
2018-07-06T09:00:12.207Z,34.50
2018-07-06T09:02:41.678Z,34.70
2018-07-06T09:05:11.706Z,33.40
2018-07-06T09:07:40.803Z,32.50
2018-07-06T09:10:09.709Z,31.70
2018-07-06T09:12:39.161Z,30.50
2018-07-06T09:15:08.679Z,31.60
2018-07-06T09:17:37.660Z,33.60
2018-07-06T09:20:06.885Z,33.90
2018-07-06T09:22:35.837Z,34.00
2018-07-06T09:25:06.269Z,34.50
2018-07-06T09:27:35.459Z,35.00
2018-07-06T09:30:04.734Z,34.20
2018-07-06T09:32:33.954Z,34.60
2018-07-06T09:35:03.512Z,34.70
2018-07-06T09:37:32.438Z,34.50
2018-07-06T09:40:01.558Z,34.30
2018-07-06T09:42:31.305Z,33.40
2018-07-06T09:45:00.348Z,32.40
2018-07-06T09:47:29.504Z,30.10
2018-07-06T09:49:58.424Z,29.60
2018-07-06T09:52:27.277Z,29.50
2018-07-06T09:54:56.153Z,29.20
2018-07-06T09:57:25.051Z,29.40
2018-07-06T09:59:54.072Z,29.80
2018-07-06T10:02:22.919Z,30.00
2018-07-06T10:04:51.866Z,29.90
2018-07-06T10:07:20.975Z,29.50
2018-07-06T10:09:50.197Z,29.10
2018-07-06T10:14:48.505Z,28.40
2018-07-06T10:17:17.712Z,27.80
2018-07-06T10:19:47.644Z,27.80
2018-07-06T10:22:17.191Z,28.10
2018-07-06T10:24:46.268Z,28.10
2018-07-06T10:27:15.452Z,28.00
2018-07-06T10:29:51.451Z,28.40
2018-07-06T10:32:21.775Z,28.70
2018-07-06T10:34:50.873Z,28.50
2018-07-06T10:37:20.520Z,29.00
2018-07-06T10:39:50.222Z,29.10
2018-07-06T10:42:19.304Z,29.30
2018-07-06T10:44:48.391Z,29.50
2018-07-06T10:47:17.585Z,29.80
2018-07-06T10:49:46.788Z,29.60
2018-07-06T10:52:16.429Z,28.90
2018-07-06T10:54:47.467Z,28.70
2018-07-06T10:57:16.591Z,29.00
2018-07-06T10:59:45.517Z,28.70
2018-07-06T11:02:14.568Z,28.50
2018-07-06T11:04:43.457Z,28.50
2018-07-06T11:07:12.337Z,28.70
2018-07-06T11:09:41.176Z,28.80
2018-07-06T11:12:10.066Z,29.00
2018-07-06T11:14:38.960Z,28.90
2018-07-06T11:17:07.843Z,28.90
2018-07-06T11:19:36.689Z,29.10
2018-07-06T11:22:05.849Z,28.70
2018-07-06T11:24:35.043Z,28.60
2018-07-06T11:27:04.404Z,28.50
2018-07-06T11:29:34.255Z,28.50
2018-07-06T11:32:03.469Z,28.60
2018-07-06T11:34:32.698Z,28.80
2018-07-06T11:37:01.649Z,28.70
2018-07-06T11:39:30.636Z,28.50
2018-07-06T11:41:59.745Z,28.30
2018-07-06T11:44:28.727Z,27.90
2018-07-06T11:46:57.849Z,28.00
2018-07-06T11:49:26.766Z,28.10
2018-07-06T11:51:56.605Z,28.10
2018-07-06T11:54:25.596Z,28.30
2018-07-06T11:56:55.324Z,28.60
2018-07-06T11:59:24.472Z,28.60
2018-07-06T12:01:53.601Z,28.10
2018-07-06T12:04:22.887Z,27.60
2018-07-06T12:06:51.941Z,27.20
2018-07-06T12:09:21.056Z,27.10
2018-07-06T12:11:50.239Z,27.10
2018-07-06T12:14:19.403Z,27.00
2018-07-06T12:16:48.311Z,27.30
2018-07-06T12:19:17.168Z,27.30
2018-07-06T12:21:46.056Z,27.10
2018-07-06T12:24:14.916Z,27.00
2018-07-06T12:26:43.833Z,26.90
2018-07-06T12:29:12.714Z,27.00
2018-07-06T12:31:41.628Z,27.00
2018-07-06T12:34:10.493Z,26.80
2018-07-06T12:36:39.634Z,26.50
2018-07-06T12:39:08.822Z,26.30
2018-07-06T12:41:38.176Z,26.60
2018-07-06T12:44:07.313Z,27.00
2018-07-06T12:46:36.445Z,27.50
2018-07-06T12:49:05.808Z,27.80
2018-07-06T12:51:34.905Z,27.80
2018-07-06T12:54:04.728Z,27.70
2018-07-06T12:56:33.892Z,27.20
2018-07-06T13:01:31.969Z,27.60
2018-07-06T13:06:29.564Z,27.40
2018-07-06T13:08:58.620Z,27.30
2018-07-06T13:11:27.773Z,27.10
2018-07-06T13:13:56.915Z,27.30
2018-07-06T13:16:25.939Z,27.50
2018-07-06T13:18:54.995Z,27.60
2018-07-06T13:21:24.155Z,27.40
2018-07-06T13:23:53.050Z,27.50
2018-07-06T13:26:22.933Z,27.20
2018-07-06T13:28:52.121Z,27.10
2018-07-06T13:31:21.055Z,27.40
2018-07-06T13:33:49.978Z,27.60
2018-07-06T13:36:18.812Z,27.80
2018-07-06T13:38:47.682Z,28.10
2018-07-06T13:41:16.542Z,28.40
2018-07-06T13:43:45.432Z,28.60
2018-07-06T13:46:14.306Z,28.90
2018-07-06T13:48:43.189Z,29.00
2018-07-06T13:51:12.293Z,28.70
2018-07-06T13:53:41.491Z,28.60
2018-07-06T13:56:10.744Z,28.50
2018-07-06T13:58:39.897Z,28.20
2018-07-06T14:01:08.826Z,28.20
2018-07-06T14:03:38.017Z,28.10
2018-07-06T14:06:07.289Z,28.00
2018-07-06T14:08:36.485Z,27.80
2018-07-06T14:11:05.779Z,27.70
2018-07-06T14:13:35.075Z,27.70
2018-07-06T14:16:04.256Z,27.70
2018-07-06T14:18:33.402Z,27.50
2018-07-06T14:21:02.657Z,27.50
2018-07-06T14:23:31.852Z,27.40
2018-07-06T14:26:00.949Z,27.30
2018-07-06T14:28:30.113Z,27.00
2018-07-06T14:33:27.985Z,26.60
2018-07-06T14:35:56.945Z,26.50
2018-07-06T14:38:25.946Z,26.50
2018-07-06T14:40:55.092Z,26.50
2018-07-06T14:43:24.091Z,26.40
2018-07-06T14:45:54.202Z,26.20
2018-07-06T14:48:23.103Z,26.20
2018-07-06T14:50:51.928Z,26.30
2018-07-06T14:53:20.834Z,26.30
2018-07-06T14:55:49.680Z,26.10
2018-07-06T14:58:18.561Z,25.90
2018-07-06T15:00:47.400Z,25.90
2018-07-06T15:03:16.558Z,25.90
2018-07-06T15:05:45.688Z,25.90
2018-07-06T15:08:15.260Z,25.80
2018-07-06T15:10:44.537Z,25.60
2018-07-06T15:13:14.688Z,25.50
2018-07-06T15:15:43.887Z,25.60
2018-07-06T15:18:12.999Z,25.70
2018-07-06T15:20:42.165Z,25.90
2018-07-06T15:23:11.172Z,25.90
2018-07-06T15:25:40.356Z,25.90
2018-07-06T15:30:38.133Z,25.50
2018-07-06T15:33:07.313Z,25.20
2018-07-06T15:35:36.479Z,25.20
2018-07-06T15:38:20.246Z,25.20
2018-07-06T15:40:49.437Z,25.20
2018-07-06T15:43:19.660Z,25.10
2018-07-06T15:45:49.787Z,25.00
2018-07-06T15:48:18.871Z,24.80
2018-07-06T15:50:48.168Z,24.70
2018-07-06T15:53:17.776Z,24.60
2018-07-06T15:55:46.904Z,24.50
2018-07-06T16:00:44.803Z,24.40
2018-07-06T16:03:13.686Z,24.50
2018-07-06T16:05:42.796Z,24.50
2018-07-06T16:08:11.697Z,24.60
2018-07-06T16:10:40.601Z,24.70
2018-07-06T16:13:09.444Z,24.30
2018-07-06T16:15:38.589Z,24.10
2018-07-06T16:18:07.745Z,24.00
2018-07-06T16:20:36.989Z,24.00
2018-07-06T16:23:06.205Z,24.00
2018-07-06T16:25:35.235Z,24.10
2018-07-06T16:28:04.579Z,24.10
2018-07-06T16:30:34.476Z,24.00
2018-07-06T16:33:04.224Z,24.00
2018-07-06T16:35:33.241Z,23.90
2018-07-06T16:38:02.321Z,23.90
2018-07-06T16:40:31.337Z,24.00
2018-07-06T16:43:00.530Z,24.00
2018-07-06T16:45:30.491Z,23.90
2018-07-06T16:47:59.773Z,23.70
2018-07-06T16:50:29.663Z,23.70
2018-07-06T16:52:58.940Z,23.50
2018-07-06T16:55:28.292Z,23.50
2018-07-06T16:57:57.564Z,23.30
2018-07-06T17:00:26.792Z,23.30
2018-07-06T17:02:55.940Z,23.20
2018-07-06T17:05:26.007Z,23.10
2018-07-06T17:07:55.136Z,23.10
2018-07-06T17:10:24.378Z,23.00
2018-07-06T17:12:54.414Z,22.90
2018-07-06T17:15:23.655Z,22.80
2018-07-06T17:17:52.517Z,22.80
2018-07-06T17:20:21.425Z,22.70
2018-07-06T17:22:50.375Z,22.80
2018-07-06T17:25:19.289Z,22.80
2018-07-06T17:27:48.245Z,22.80
2018-07-06T17:30:17.193Z,22.80
2018-07-06T17:32:46.036Z,22.70
2018-07-06T17:37:43.448Z,22.60
2018-07-06T17:40:12.317Z,22.40
2018-07-06T17:42:41.347Z,22.30
2018-07-06T17:45:10.547Z,22.30
2018-07-06T17:47:39.607Z,22.20
2018-07-06T17:50:08.627Z,22.00
2018-07-06T17:52:41.156Z,21.90
2018-07-06T17:55:10.272Z,21.90
2018-07-06T17:57:39.348Z,21.90
2018-07-06T18:00:09.303Z,21.90
2018-07-06T18:02:38.833Z,21.80
2018-07-06T18:05:09.910Z,21.80
2018-07-06T18:07:39.260Z,21.90
2018-07-06T18:10:08.839Z,21.90
2018-07-06T18:12:38.076Z,21.80
2018-07-06T18:15:09.044Z,21.60
2018-07-06T18:17:39.647Z,21.50
2018-07-06T18:20:09.620Z,21.40
2018-07-06T18:22:39.470Z,21.30
2018-07-06T18:25:08.637Z,21.30
2018-07-06T18:27:38.639Z,21.30
2018-07-06T18:30:08.759Z,21.20
2018-07-06T18:32:37.922Z,21.10
2018-07-06T18:35:07.000Z,21.00
2018-07-06T18:37:35.944Z,20.90
2018-07-06T18:40:05.704Z,20.80
2018-07-06T18:42:34.624Z,20.70
2018-07-06T18:45:03.656Z,20.70
2018-07-06T18:47:32.811Z,20.60
2018-07-06T18:50:01.983Z,20.60
2018-07-06T18:52:31.048Z,20.60
2018-07-06T18:55:00.424Z,20.50
2018-07-06T18:57:29.561Z,20.50
2018-07-06T19:00:00.015Z,20.60
2018-07-06T19:02:29.752Z,20.60
2018-07-06T19:04:59.779Z,20.60
2018-07-06T19:07:29.658Z,20.70
2018-07-06T19:09:59.059Z,20.80
2018-07-06T19:12:28.798Z,20.90
2018-07-06T19:14:57.860Z,20.90
2018-07-06T19:17:27.016Z,20.90
2018-07-06T19:19:56.068Z,20.80
2018-07-06T19:22:25.767Z,20.80
2018-07-06T19:24:55.178Z,20.80
2018-07-06T19:27:24.560Z,20.90
2018-07-06T19:29:53.913Z,20.90
2018-07-06T19:32:23.024Z,20.90
2018-07-06T19:34:52.350Z,20.90
2018-07-06T19:37:21.473Z,21.00
2018-07-06T19:39:50.629Z,21.00
2018-07-06T19:42:19.731Z,21.00
2018-07-06T19:44:49.213Z,21.00
2018-07-06T19:47:18.393Z,21.10
2018-07-06T19:49:47.328Z,21.10
2018-07-06T19:52:16.282Z,21.10
2018-07-06T19:54:45.180Z,21.10
2018-07-06T19:57:14.113Z,20.90
2018-07-06T19:59:42.980Z,20.80
2018-07-06T20:02:11.959Z,20.80
2018-07-06T20:04:41.765Z,20.90
2018-07-06T20:07:10.758Z,21.00
2018-07-06T20:09:40.396Z,21.00
2018-07-06T20:12:09.368Z,21.00
2018-07-06T20:14:38.325Z,21.10
2018-07-06T20:17:07.541Z,21.00
2018-07-06T20:19:36.680Z,20.90
2018-07-06T20:22:05.699Z,20.80
2018-07-06T20:24:34.714Z,20.80
2018-07-06T20:27:03.809Z,20.70
2018-07-06T20:29:33.139Z,20.70
2018-07-06T20:32:02.812Z,20.70
2018-07-06T20:34:31.808Z,20.60
2018-07-06T20:37:01.101Z,20.50
2018-07-06T20:39:30.344Z,20.60
2018-07-06T20:41:59.460Z,20.60
2018-07-06T20:44:28.581Z,20.50
2018-07-06T20:46:57.543Z,20.60
2018-07-06T20:49:26.802Z,20.60
2018-07-06T20:51:57.501Z,20.60
2018-07-06T20:54:26.595Z,20.60
2018-07-06T20:56:55.688Z,20.60
2018-07-06T20:59:25.567Z,20.70
2018-07-06T21:01:54.468Z,20.70
2018-07-06T21:04:23.445Z,20.70
2018-07-06T21:06:52.309Z,20.70
2018-07-06T21:09:21.168Z,20.70
2018-07-06T21:11:50.133Z,20.70
2018-07-06T21:14:19.304Z,20.70
2018-07-06T21:16:48.324Z,20.70
2018-07-06T21:19:17.608Z,20.70
2018-07-06T21:21:47.031Z,20.60
2018-07-06T21:24:16.380Z,20.60
2018-07-06T21:26:45.502Z,20.60
2018-07-06T21:29:14.737Z,20.70
2018-07-06T21:31:44.099Z,20.70
2018-07-06T21:34:14.031Z,20.60
2018-07-06T21:36:43.068Z,20.50
2018-07-06T21:39:12.896Z,20.30
2018-07-06T21:41:42.088Z,20.20
2018-07-06T21:44:11.837Z,20.10
2018-07-06T21:46:41.168Z,19.90
2018-07-06T21:49:10.344Z,19.70
2018-07-06T21:51:39.503Z,19.60
2018-07-06T21:54:08.934Z,19.50
2018-07-06T21:56:37.972Z,19.50
2018-07-06T21:59:07.064Z,19.40
2018-07-06T22:01:36.949Z,19.40
2018-07-06T22:04:06.758Z,19.40
2018-07-06T22:06:36.081Z,19.40
2018-07-06T22:09:05.816Z,19.30
2018-07-06T22:11:34.700Z,19.30
2018-07-06T22:14:03.721Z,19.40
2018-07-06T22:16:32.601Z,19.40
2018-07-06T22:19:01.517Z,19.40
2018-07-06T22:21:30.484Z,19.30
2018-07-06T22:23:59.325Z,19.30
2018-07-06T22:26:28.147Z,19.20
2018-07-06T22:28:57.013Z,19.20
2018-07-06T22:31:26.192Z,19.10
2018-07-06T22:33:55.300Z,19.00
2018-07-06T22:36:24.240Z,19.00
2018-07-06T22:38:53.348Z,18.90
2018-07-06T22:41:22.472Z,18.80
2018-07-06T22:43:51.771Z,18.80
2018-07-06T22:46:21.069Z,18.70
2018-07-06T22:48:50.816Z,18.70
2018-07-06T22:51:19.939Z,18.60
2018-07-06T22:56:18.032Z,18.50
2018-07-06T22:58:47.115Z,18.40
2018-07-06T23:01:16.136Z,18.40
2018-07-06T23:03:45.705Z,18.20
2018-07-06T23:06:14.944Z,18.20
2018-07-06T23:08:44.099Z,18.10
2018-07-06T23:11:13.351Z,18.10
2018-07-06T23:13:42.487Z,18.00
2018-07-06T23:16:11.587Z,18.00
2018-07-06T23:18:40.733Z,18.00
2018-07-06T23:21:10.059Z,18.00
2018-07-06T23:23:40.061Z,17.90
2018-07-06T23:26:09.420Z,17.80
2018-07-06T23:28:38.485Z,17.80
2018-07-06T23:31:07.326Z,17.80
2018-07-06T23:33:36.228Z,17.80
2018-07-06T23:36:05.356Z,17.80
2018-07-06T23:38:34.232Z,17.80
2018-07-06T23:41:03.076Z,17.90
2018-07-06T23:43:31.950Z,17.90
2018-07-06T23:46:00.786Z,17.90
2018-07-06T23:48:29.762Z,17.80
2018-07-06T23:50:58.951Z,17.90
2018-07-06T23:53:28.119Z,17.90
2018-07-06T23:55:57.862Z,17.90
2018-07-06T23:58:27.029Z,17.80
